Time;durP1;ratioP1;P1;durP2;ratioP2;P2;SDS_P1;SDS_P2;PMS_P1;PMS_P2;Temp;Humidity;BMP_temperature;BMP_pressure;BME280_temperature;BME280_humidity;BME280_pressure;Samples;Min_cycle;Max_cycle;Signal;HPM_P1;HPM_P2
2022/07/15 00:02:34;;;;;;;2.72;0.77;;;15.50;99.90;;;;;;6188210;28;20471;-66
2022/07/15 00:05:42;;;;;;;2.10;0.70;;;15.60;99.90;;;;;;6172914;28;20448;-66
2022/07/15 00:08:47;;;;;;;0.60;0.60;;;15.60;99.90;;;;;;6164355;29;20274;-66
2022/07/15 00:11:52;;;;;;;1.27;0.60;;;15.40;99.90;;;;;;6166211;28;20450;-66
2022/07/15 00:14:58;;;;;;;0.60;0.60;;;15.40;99.90;;;;;;6168793;28;20478;-66
2022/07/15 00:18:04;;;;;;;1.58;0.40;;;15.40;99.90;;;;;;6169195;29;20300;-66
2022/07/15 00:21:11;;;;;;;0.50;0.50;;;15.40;99.90;;;;;;6169127;29;20454;-66
2022/07/15 00:24:17;;;;;;;9.07;0.50;;;15.30;99.90;;;;;;6168993;29;20274;-66
2022/07/15 00:27:22;;;;;;;0.55;0.55;;;15.40;99.90;;;;;;6168441;29;20274;-66
2022/07/15 00:30:31;;;;;;;1.17;0.50;;;15.40;99.90;;;;;;6167517;28;20274;-66
2022/07/15 00:33:36;;;;;;;0.60;0.60;;;15.40;99.90;;;;;;6168652;29;20314;-66
2022/07/15 00:36:44;;;;;;;0.60;0.60;;;15.40;99.90;;;;;;6168891;28;20275;-66
2022/07/15 00:39:49;;;;;;;0.70;0.70;;;15.40;99.90;;;;;;6168561;29;20558;-66
2022/07/15 00:42:55;;;;;;;2.10;0.40;;;15.30;99.90;;;;;;6167351;28;20278;-66
2022/07/15 00:46:00;;;;;;;0.60;0.60;;;15.30;99.90;;;;;;6168135;29;20279;-66
2022/07/15 00:49:08;;;;;;;0.40;0.40;;;15.30;99.90;;;;;;6167483;28;20278;-66
2022/07/15 00:52:14;;;;;;;1.83;0.60;;;15.30;99.90;;;;;;6167931;29;20298;-66
2022/07/15 00:55:22;;;;;;;4.57;0.70;;;15.30;99.90;;;;;;6167203;29;20270;-66
2022/07/15 00:58:28;;;;;;;3.13;0.82;;;15.30;99.90;;;;;;6168172;29;20279;-66
2022/07/15 01:01:34;;;;;;;0.60;0.60;;;15.20;99.90;;;;;;6167292;29;20279;-66
2022/07/15 01:04:40;;;;;;;4.45;0.52;;;15.20;99.90;;;;;;6167002;28;20542;-66
2022/07/15 01:07:49;;;;;;;1.35;0.60;;;15.10;99.90;;;;;;6167448;29;20290;-66
2022/07/15 01:10:55;;;;;;;3.00;0.60;;;15.00;99.90;;;;;;6166232;29;20279;-66
2022/07/15 01:14:01;;;;;;;1.77;0.50;;;15.10;99.90;;;;;;6180141;28;20310;-66
2022/07/15 01:17:10;;;;;;;10.90;7.72;;;15.00;99.90;;;;;;6190167;28;20436;-66
2022/07/15 01:20:18;;;;;;;1.80;1.73;;;15.00;99.90;;;;;;6173850;28;20286;-66
2022/07/15 01:23:36;;;;;;;0.90;0.90;;;14.90;99.90;;;;;;6172857;28;20282;-66
2022/07/15 01:26:49;;;;;;;0.60;0.60;;;14.90;99.90;;;;;;6173856;28;20274;-66
2022/07/15 01:29:58;;;;;;;0.50;0.50;;;14.80;99.90;;;;;;6173813;28;20274;-66
2022/07/15 01:33:05;;;;;;;0.55;0.55;;;14.80;99.90;;;;;;6174224;28;20588;-66
2022/07/15 01:36:12;;;;;;;2.63;0.70;;;14.90;99.90;;;;;;6173645;28;20274;-66
2022/07/15 01:39:25;;;;;;;0.60;0.60;;;14.90;99.90;;;;;;6174020;28;20278;-66
2022/07/15 01:42:43;;;;;;;0.50;0.50;;;14.80;99.90;;;;;;6173846;28;20282;-66
2022/07/15 01:45:51;;;;;;;0.57;0.57;;;14.80;99.90;;;;;;6174101;28;20278;-66
2022/07/15 01:49:25;;;;;;;2.75;0.40;;;14.70;99.90;;;;;;6173408;28;20274;-66
2022/07/15 01:52:48;;;;;;;0.50;0.50;;;14.70;99.90;;;;;;6191165;28;20290;-66
2022/07/15 01:55:55;;;;;;;0.40;0.40;;;14.80;99.90;;;;;;6173561;28;20561;-66
2022/07/15 01:59:01;;;;;;;0.40;0.40;;;14.80;99.90;;;;;;6173515;28;20277;-66
2022/07/15 02:02:06;;;;;;;1.48;0.60;;;14.70;99.90;;;;;;6173628;28;20295;-66
2022/07/15 02:05:16;;;;;;;0.50;0.50;;;14.60;99.90;;;;;;6162363;29;20266;-66
2022/07/15 02:08:22;;;;;;;0.65;0.50;;;14.60;99.90;;;;;;6165786;28;20274;-66
2022/07/15 02:11:28;;;;;;;2.00;0.40;;;14.60;99.90;;;;;;6165626;28;20282;-66
2022/07/15 02:14:34;;;;;;;0.73;0.65;;;14.60;99.90;;;;;;6174343;28;20314;-66
2022/07/15 02:17:42;;;;;;;0.35;0.35;;;14.50;99.90;;;;;;6181288;28;20275;-66
2022/07/15 02:20:47;;;;;;;0.75;0.30;;;14.40;99.90;;;;;;6165996;28;20290;-66
2022/07/15 02:23:53;;;;;;;1.13;0.55;;;14.50;99.90;;;;;;6166270;28;20565;-66
2022/07/15 02:26:59;;;;;;;0.50;0.50;;;14.50;99.90;;;;;;6165048;28;20274;-66
2022/07/15 02:30:07;;;;;;;0.50;0.50;;;14.60;99.90;;;;;;6180767;28;20274;-66
2022/07/15 02:33:19;;;;;;;0.40;0.40;;;14.60;99.90;;;;;;6179848;28;20295;-66
2022/07/15 02:36:24;;;;;;;1.77;0.50;;;14.60;99.90;;;;;;6165593;28;20278;-66
2022/07/15 02:39:29;;;;;;;0.50;0.50;;;14.60;99.90;;;;;;6180582;28;20469;-66
2022/07/15 02:42:37;;;;;;;0.68;0.68;;;14.60;99.90;;;;;;6180699;28;20356;-66
2022/07/15 02:45:44;;;;;;;0.50;0.50;;;14.40;99.90;;;;;;6180482;28;20282;-66
2022/07/15 02:48:53;;;;;;;0.30;0.30;;;14.40;99.90;;;;;;6180375;28;20279;-66
2022/07/15 02:52:01;;;;;;;1.00;0.68;;;14.50;99.90;;;;;;6180180;28;20434;-66
2022/07/15 02:55:14;;;;;;;0.57;0.57;;;14.50;99.90;;;;;;6179923;28;20484;-66
2022/07/15 02:58:21;;;;;;;0.60;0.60;;;14.60;99.90;;;;;;6180140;28;20270;-66
2022/07/15 03:01:27;;;;;;;0.43;0.43;;;14.50;99.90;;;;;;6180113;28;20425;-66
2022/07/15 03:04:33;;;;;;;0.30;0.30;;;14.40;99.90;;;;;;6180034;28;20262;-66
2022/07/15 03:07:39;;;;;;;0.50;0.50;;;14.40;99.90;;;;;;6165087;28;20274;-66
2022/07/15 03:10:45;;;;;;;0.40;0.40;;;14.50;99.90;;;;;;6163975;29;20275;-66
2022/07/15 03:13:51;;;;;;;0.50;0.50;;;14.40;99.90;;;;;;6176612;28;20305;-66
2022/07/15 03:16:58;;;;;;;0.40;0.40;;;14.40;99.90;;;;;;6171215;28;20564;-66
2022/07/15 03:20:05;;;;;;;4.47;0.60;;;14.40;99.90;;;;;;6171912;28;20274;-66
2022/07/15 03:23:12;;;;;;;0.65;0.65;;;14.40;99.90;;;;;;6171974;28;20294;-66
2022/07/15 03:26:17;;;;;;;0.60;0.60;;;14.40;99.90;;;;;;6171432;28;20281;-66
2022/07/15 03:29:24;;;;;;;0.60;0.60;;;14.30;99.90;;;;;;6171204;28;20277;-66
2022/07/15 03:32:30;;;;;;;0.40;0.40;;;14.20;99.90;;;;;;6171039;28;20278;-66
2022/07/15 03:35:36;;;;;;;0.60;0.60;;;14.30;99.90;;;;;;6171370;28;20297;-66
2022/07/15 03:38:42;;;;;;;0.70;0.70;;;14.30;99.90;;;;;;6171370;28;20277;-66
2022/07/15 03:41:49;;;;;;;0.50;0.50;;;14.30;99.90;;;;;;6171429;28;20273;-66
2022/07/15 03:44:57;;;;;;;0.40;0.40;;;14.20;99.90;;;;;;6188407;28;20278;-66
2022/07/15 03:48:02;;;;;;;0.75;0.60;;;14.10;99.90;;;;;;6170310;28;20573;-66
2022/07/15 03:51:12;;;;;;;3.00;0.60;;;14.20;99.90;;;;;;6170974;28;20278;-66
2022/07/15 03:54:17;;;;;;;0.63;0.50;;;14.40;99.90;;;;;;6170893;28;20478;-66
2022/07/15 03:57:24;;;;;;;0.50;0.50;;;14.30;99.90;;;;;;6171101;28;20454;-66
2022/07/15 04:00:31;;;;;;;0.43;0.43;;;14.30;99.90;;;;;;6187900;28;20274;-66
2022/07/15 04:03:37;;;;;;;0.32;0.32;;;14.30;99.90;;;;;;6170702;28;20277;-66
2022/07/15 04:06:43;;;;;;;0.50;0.50;;;14.40;99.90;;;;;;6147257;29;20271;-66
2022/07/15 04:09:49;;;;;;;0.60;0.60;;;14.50;99.90;;;;;;6163973;29;20274;-66
2022/07/15 04:12:54;;;;;;;0.90;0.90;;;14.40;99.90;;;;;;6162979;28;20515;-66
2022/07/15 04:16:01;;;;;;;0.57;0.50;;;14.50;99.90;;;;;;6162499;29;20297;-67
2022/07/15 04:19:06;;;;;;;2.17;0.50;;;14.50;99.90;;;;;;6164184;29;20278;-66
2022/07/15 04:22:12;;;;;;;1.02;0.50;;;14.30;99.90;;;;;;6163214;28;20275;-67
2022/07/15 04:25:27;;;;;;;2.63;0.50;;;14.40;99.90;;;;;;6162938;29;20441;-66
2022/07/15 04:28:45;;;;;;;0.40;0.40;;;14.40;99.90;;;;;;6162944;29;20270;-66
2022/07/15 04:31:51;;;;;;;2.20;0.73;;;14.50;99.90;;;;;;6162848;28;20274;-66
2022/07/15 04:35:06;;;;;;;0.45;0.45;;;14.60;99.90;;;;;;6162726;28;20295;-66
2022/07/15 04:38:15;;;;;;;0.60;0.60;;;14.70;99.90;;;;;;6162512;29;20275;-66
2022/07/15 04:41:21;;;;;;;1.27;0.70;;;14.80;99.90;;;;;;6163986;28;20274;-66
2022/07/15 04:44:26;;;;;;;1.92;0.60;;;14.80;99.90;;;;;;6162756;28;20557;-66
2022/07/15 04:47:35;;;;;;;0.95;0.73;;;14.80;99.60;;;;;;6162500;29;20278;-66
2022/07/15 04:50:46;;;;;;;0.50;0.50;;;14.80;99.10;;;;;;6162671;29;20573;-66
2022/07/15 04:53:52;;;;;;;0.52;0.52;;;14.70;99.20;;;;;;6163743;29;20271;-66
2022/07/15 04:56:57;;;;;;;0.70;0.70;;;14.70;99.10;;;;;;6162749;28;20505;-66
2022/07/15 05:00:06;;;;;;;0.75;0.73;;;14.70;99.00;;;;;;6166844;28;20309;-66
2022/07/15 05:03:18;;;;;;;1.50;0.70;;;14.60;99.00;;;;;;6167757;29;20453;-66
2022/07/15 05:06:25;;;;;;;1.98;0.60;;;14.60;98.60;;;;;;6179452;28;20531;-66
2022/07/15 05:09:30;;;;;;;1.05;0.70;;;14.70;98.60;;;;;;6166592;29;20278;-66
2022/07/15 05:12:35;;;;;;;2.10;0.60;;;14.80;98.70;;;;;;6168636;28;20444;-66
2022/07/15 05:15:40;;;;;;;1.27;0.60;;;14.70;98.90;;;;;;6174316;28;20411;-66
2022/07/15 05:18:54;;;;;;;0.65;0.63;;;14.70;98.60;;;;;;6174316;28;20278;-66
2022/07/15 05:22:00;;;;;;;1.17;0.60;;;14.60;98.60;;;;;;6191055;28;20274;-66
2022/07/15 05:25:08;;;;;;;0.57;0.57;;;14.40;98.60;;;;;;6174150;28;20274;-66
2022/07/15 05:28:17;;;;;;;0.55;0.55;;;14.50;98.80;;;;;;6174505;28;20274;-66
2022/07/15 05:31:23;;;;;;;0.90;0.90;;;14.60;98.70;;;;;;6173345;28;20278;-66
2022/07/15 05:34:29;;;;;;;0.60;0.60;;;14.50;98.10;;;;;;6191144;28;20278;-66
2022/07/15 05:37:39;;;;;;;1.52;0.60;;;14.70;98.80;;;;;;6173827;28;20456;-66
2022/07/15 05:40:46;;;;;;;0.40;0.40;;;15.00;98.80;;;;;;6173828;28;20360;-66
2022/07/15 05:43:52;;;;;;;0.73;0.73;;;15.20;98.10;;;;;;6190825;28;20270;-66
2022/07/15 05:46:57;;;;;;;0.77;0.77;;;15.40;97.80;;;;;;6173568;28;20278;-66
2022/07/15 05:50:07;;;;;;;1.85;1.00;;;15.50;96.10;;;;;;6173593;28;20484;-65
2022/07/15 05:53:17;;;;;;;1.90;0.80;;;15.60;96.00;;;;;;6173170;28;20433;-66
2022/07/15 05:56:22;;;;;;;3.50;1.08;;;15.60;96.10;;;;;;6173315;28;20293;-66
2022/07/15 05:59:29;;;;;;;0.50;0.50;;;15.70;96.30;;;;;;6190235;28;20274;-65
2022/07/15 06:02:34;;;;;;;0.50;0.50;;;15.70;95.30;;;;;;6190421;28;20273;-66
2022/07/15 06:05:42;;;;;;;0.80;0.80;;;15.80;95.60;;;;;;6158209;29;20266;-66
2022/07/15 06:08:47;;;;;;;0.60;0.60;;;15.90;95.30;;;;;;6164712;28;20278;-65
2022/07/15 06:11:53;;;;;;;0.80;0.80;;;16.00;96.40;;;;;;6165384;28;20294;-66
2022/07/15 06:14:59;;;;;;;0.77;0.75;;;15.90;95.40;;;;;;6177546;28;20614;-66
2022/07/15 06:18:06;;;;;;;2.90;0.80;;;15.80;95.10;;;;;;6166472;28;20298;-66
2022/07/15 06:21:13;;;;;;;1.20;0.73;;;15.70;94.40;;;;;;6166131;28;20433;-66
2022/07/15 06:24:21;;;;;;;3.03;0.88;;;15.80;95.00;;;;;;6180807;28;20274;-66
2022/07/15 06:27:26;;;;;;;2.78;0.95;;;16.00;94.40;;;;;;6180730;28;20457;-66
2022/07/15 06:30:32;;;;;;;0.70;0.70;;;15.90;94.30;;;;;;6165941;28;20279;-66
2022/07/15 06:33:38;;;;;;;2.65;0.93;;;16.00;94.80;;;;;;6165814;28;20550;-66
2022/07/15 06:36:44;;;;;;;0.70;0.70;;;16.10;94.30;;;;;;6165917;28;20294;-66
2022/07/15 06:39:50;;;;;;;1.15;0.90;;;15.70;94.30;;;;;;6165924;28;20270;-66
2022/07/15 06:42:55;;;;;;;0.60;0.60;;;15.70;94.70;;;;;;6164242;28;20279;-66
2022/07/15 06:46:04;;;;;;;1.00;1.00;;;15.80;94.60;;;;;;6180073;28;20545;-66
2022/07/15 06:49:09;;;;;;;0.88;0.60;;;15.90;94.70;;;;;;6165419;28;20309;-66
2022/07/15 06:52:17;;;;;;;3.13;0.70;;;15.80;94.30;;;;;;6165174;28;20270;-67
2022/07/15 06:55:22;;;;;;;1.38;0.70;;;15.70;94.30;;;;;;6164931;28;20270;-67
2022/07/15 06:58:28;;;;;;;1.25;0.77;;;15.70;94.70;;;;;;6164012;29;20297;-67
2022/07/15 07:01:34;;;;;;;3.58;0.80;;;15.90;95.60;;;;;;6180031;28;20270;-67
2022/07/15 07:04:42;;;;;;;0.88;0.88;;;16.00;95.80;;;;;;6179788;28;20439;-67
2022/07/15 07:07:51;;;;;;;1.23;0.80;;;16.10;95.40;;;;;;6163833;29;20278;-67
2022/07/15 07:10:56;;;;;;;2.65;0.80;;;16.30;95.90;;;;;;6163920;28;20278;-67
2022/07/15 07:14:01;;;;;;;3.00;0.70;;;16.40;95.70;;;;;;6177633;28;20306;-67
2022/07/15 07:17:07;;;;;;;2.53;0.90;;;16.20;94.60;;;;;;6188321;28;20293;-67
2022/07/15 07:20:12;;;;;;;0.77;0.77;;;16.40;96.10;;;;;;6188580;28;20274;-67
2022/07/15 07:23:20;;;;;;;1.17;0.80;;;16.50;96.40;;;;;;6188126;28;20278;-67
2022/07/15 07:26:26;;;;;;;1.02;1.00;;;16.40;96.50;;;;;;6188300;28;20585;-67
2022/07/15 07:29:31;;;;;;;1.10;0.90;;;16.50;96.40;;;;;;6188411;28;20277;-67
2022/07/15 07:32:37;;;;;;;0.90;0.90;;;16.60;96.30;;;;;;6188223;28;20469;-67
2022/07/15 07:35:44;;;;;;;1.13;1.00;;;16.70;96.20;;;;;;6171268;28;20273;-67
2022/07/15 07:38:51;;;;;;;0.95;0.95;;;16.70;96.00;;;;;;6188256;28;20293;-67
2022/07/15 07:41:56;;;;;;;4.18;0.93;;;16.60;95.60;;;;;;6187818;28;20273;-67
2022/07/15 07:45:02;;;;;;;1.98;0.85;;;16.50;95.20;;;;;;6188279;28;20275;-67
2022/07/15 07:48:08;;;;;;;1.33;0.80;;;16.50;96.40;;;;;;6188107;28;20278;-67
2022/07/15 07:51:14;;;;;;;2.38;1.13;;;16.60;96.50;;;;;;6187984;28;20414;-67
2022/07/15 07:54:22;;;;;;;4.05;0.90;;;16.60;96.20;;;;;;6187814;28;20281;-67
2022/07/15 07:57:27;;;;;;;1.13;0.90;;;16.90;95.60;;;;;;6188050;28;20293;-67
2022/07/15 08:00:33;;;;;;;2.38;1.10;;;16.90;95.80;;;;;;6171156;28;20273;-67
2022/07/15 08:03:38;;;;;;;1.85;1.10;;;17.00;96.00;;;;;;6188196;28;20269;-67
2022/07/15 08:06:44;;;;;;;1.63;0.88;;;16.80;94.50;;;;;;6164960;28;20266;-67
2022/07/15 08:09:50;;;;;;;1.60;1.48;;;16.80;95.70;;;;;;6164132;28;20277;-67
2022/07/15 08:12:56;;;;;;;1.85;1.75;;;16.90;95.70;;;;;;6163967;28;20298;-67
2022/07/15 08:16:01;;;;;;;4.40;1.23;;;17.00;95.40;;;;;;6164338;28;20275;-67
2022/07/15 08:19:16;;;;;;;2.50;0.95;;;16.90;95.60;;;;;;6164189;29;20593;-67
2022/07/15 08:22:21;;;;;;;1.25;1.00;;;16.80;95.00;;;;;;6162960;28;20283;-67
2022/07/15 08:25:30;;;;;;;1.42;1.00;;;16.60;94.60;;;;;;6163834;28;20274;-67
2022/07/15 08:28:36;;;;;;;1.08;0.73;;;16.60;93.90;;;;;;6163723;29;20278;-67
2022/07/15 08:32:02;;;;;;;1.38;0.90;;;16.90;94.20;;;;;;6164236;28;20279;-67
2022/07/15 08:35:08;;;;;;;1.95;1.20;;;16.70;93.10;;;;;;6168841;29;20283;-67
2022/07/15 08:38:20;;;;;;;0.75;0.75;;;16.50;94.10;;;;;;6168635;29;20314;-67
2022/07/15 08:41:27;;;;;;;1.48;0.80;;;16.60;95.10;;;;;;6168408;29;20561;-67
2022/07/15 08:44:34;;;;;;;0.98;0.98;;;16.50;93.70;;;;;;6168580;29;20274;-67
2022/07/15 08:47:43;;;;;;;0.70;0.70;;;16.40;93.60;;;;;;6168345;29;20274;-67
2022/07/15 08:50:59;;;;;;;1.15;0.80;;;16.50;93.90;;;;;;6168403;29;20274;-67
2022/07/15 08:54:04;;;;;;;3.60;0.73;;;16.50;93.50;;;;;;6168246;29;20271;-66
2022/07/15 08:57:14;;;;;;;1.10;0.80;;;16.50;93.30;;;;;;6168384;28;20291;-66
2022/07/15 09:00:20;;;;;;;0.90;0.90;;;16.60;93.50;;;;;;6168052;29;20294;-66
2022/07/15 09:03:26;;;;;;;2.45;2.28;;;16.60;93.50;;;;;;6167753;29;20590;-66
2022/07/15 09:06:36;;;;;;;2.85;2.00;;;16.70;93.80;;;;;;6168161;29;20267;-66
2022/07/15 09:09:41;;;;;;;9.43;7.40;;;16.80;92.80;;;;;;6167389;28;20569;-66
2022/07/15 09:12:51;;;;;;;2.50;2.33;;;16.80;93.30;;;;;;6169834;28;20310;-66
2022/07/15 09:15:58;;;;;;;1.70;1.45;;;16.60;92.70;;;;;;6191484;28;20274;-66
2022/07/15 09:19:03;;;;;;;13.70;10.25;;;16.90;93.60;;;;;;6191330;28;20290;-66
2022/07/15 09:22:09;;;;;;;5.40;3.35;;;16.70;92.70;;;;;;6190959;28;20278;-66
2022/07/15 09:25:14;;;;;;;3.35;3.25;;;16.60;92.20;;;;;;6191304;28;20348;-66
2022/07/15 09:28:21;;;;;;;1.45;1.42;;;16.60;92.30;;;;;;6191147;28;20302;-66
2022/07/15 09:35:02;;;;;;;1.27;0.90;;;16.70;93.30;;;;;;6191098;28;20446;-67
2022/07/15 09:38:08;;;;;;;0.80;0.80;;;16.60;92.70;;;;;;6190565;28;20359;-67
2022/07/15 09:41:26;;;;;;;16.45;2.38;;;16.80;92.30;;;;;;6190529;28;20293;-67
2022/07/15 09:44:33;;;;;;;0.90;0.90;;;16.80;92.00;;;;;;6189975;28;20274;-67
2022/07/15 09:47:39;;;;;;;1.00;1.00;;;16.70;92.00;;;;;;6190602;28;20273;-67
2022/07/15 09:50:44;;;;;;;2.72;0.75;;;16.90;93.00;;;;;;6191178;28;20277;-67
2022/07/15 09:53:50;;;;;;;1.92;1.92;;;17.10;93.90;;;;;;6190494;28;20278;-67
2022/07/15 09:56:55;;;;;;;4.70;4.40;;;17.10;93.00;;;;;;6190331;28;20363;-67
2022/07/15 10:00:02;;;;;;;1.35;1.23;;;17.20;92.40;;;;;;6173791;28;20298;-67
2022/07/15 10:03:13;;;;;;;1.25;1.25;;;17.30;92.00;;;;;;6190745;28;20275;-68
2022/07/15 10:06:19;;;;;;;1.20;1.20;;;17.10;92.20;;;;;;6170686;28;20267;-66
2022/07/15 10:09:27;;;;;;;3.47;1.17;;;17.10;92.10;;;;;;6166657;29;20278;-67
2022/07/15 10:12:43;;;;;;;1.08;0.60;;;16.90;91.60;;;;;;6166403;28;20275;-66
2022/07/15 10:16:01;;;;;;;1.02;0.90;;;17.10;92.50;;;;;;6165906;29;20462;-66
2022/07/15 10:19:16;;;;;;;2.28;1.00;;;17.30;92.20;;;;;;6165921;29;20302;-66
2022/07/15 10:22:32;;;;;;;1.05;1.05;;;17.30;92.20;;;;;;6166509;29;20287;-66
2022/07/15 10:25:55;;;;;;;4.00;0.80;;;17.40;91.80;;;;;;6166017;29;20279;-66
2022/07/15 10:29:04;;;;;;;1.60;1.00;;;17.40;92.60;;;;;;6166232;29;20279;-67
2022/07/15 10:32:13;;;;;;;1.23;1.05;;;17.40;91.60;;;;;;6165972;29;20279;-67
2022/07/15 10:35:41;;;;;;;2.47;1.40;;;17.20;92.10;;;;;;6166139;29;20275;-67
2022/07/15 10:39:04;;;;;;;1.02;1.02;;;17.30;94.50;;;;;;6165695;29;20294;-67
2022/07/15 10:42:11;;;;;;;0.93;0.93;;;17.20;93.60;;;;;;6165886;29;20271;-67
2022/07/15 10:45:17;;;;;;;0.90;0.90;;;17.30;92.90;;;;;;6165457;29;20274;-67
2022/07/15 10:48:28;;;;;;;0.80;0.80;;;17.30;92.50;;;;;;6165595;28;20655;-67
2022/07/15 10:51:47;;;;;;;0.73;0.73;;;17.40;92.50;;;;;;6165295;29;20275;-67
2022/07/15 10:55:03;;;;;;;1.50;1.10;;;17.30;92.00;;;;;;6165612;28;20271;-67
2022/07/15 10:58:13;;;;;;;1.02;0.90;;;17.20;91.50;;;;;;6165405;29;20274;-67
2022/07/15 11:01:27;;;;;;;0.80;0.60;;;17.10;90.30;;;;;;6165405;29;20295;-67
2022/07/15 11:04:35;;;;;;;0.63;0.63;;;17.20;91.50;;;;;;6164678;29;20270;-67
2022/07/15 11:07:40;;;;;;;0.88;0.88;;;17.40;91.70;;;;;;6165069;29;20566;-67
2022/07/15 11:10:45;;;;;;;3.08;0.70;;;17.50;93.00;;;;;;6165109;29;20466;-67
2022/07/15 11:13:51;;;;;;;1.27;0.82;;;17.70;93.10;;;;;;6175453;28;20306;-67
2022/07/15 11:16:57;;;;;;;2.38;0.80;;;17.50;92.10;;;;;;6188713;28;20269;-67
2022/07/15 11:20:09;;;;;;;1.40;0.93;;;17.50;92.40;;;;;;6188721;28;20294;-66
2022/07/15 11:23:17;;;;;;;1.80;0.80;;;17.70;91.90;;;;;;6188673;28;20274;-67
2022/07/15 11:26:48;;;;;;;0.80;0.80;;;17.80;91.40;;;;;;6188498;28;20274;-67
2022/07/15 11:29:58;;;;;;;3.88;0.80;;;17.70;90.30;;;;;;6187969;28;20576;-67
2022/07/15 11:33:08;;;;;;;1.83;1.50;;;17.70;90.30;;;;;;6188085;28;20273;-66
2022/07/15 11:36:21;;;;;;;2.75;1.20;;;17.70;90.20;;;;;;6188025;28;20277;-66
2022/07/15 11:39:30;;;;;;;0.90;0.90;;;17.80;89.30;;;;;;6188016;28;20270;-66
2022/07/15 11:45:58;;;;;;;3.50;1.08;;;17.80;90.40;;;;;;6188183;28;20274;-66
2022/07/15 11:49:04;;;;;;;1.05;0.98;;;17.70;91.20;;;;;;6188317;28;20326;-66
2022/07/15 11:52:14;;;;;;;0.60;0.60;;;17.60;86.90;;;;;;6188129;28;20281;-66
2022/07/15 11:55:21;;;;;;;1.30;1.20;;;17.70;90.00;;;;;;6187065;28;20278;-67
2022/07/15 11:58:31;;;;;;;1.40;1.40;;;17.70;87.50;;;;;;6188158;28;20269;-67
2022/07/15 12:01:36;;;;;;;1.27;1.20;;;17.60;88.20;;;;;;6188110;28;20367;-67
2022/07/15 12:04:43;;;;;;;2.38;0.90;;;17.50;89.80;;;;;;6180737;28;20262;-67
2022/07/15 12:07:51;;;;;;;0.82;0.82;;;17.70;91.60;;;;;;6167978;28;20274;-67
2022/07/15 12:10:56;;;;;;;0.60;0.60;;;17.70;90.90;;;;;;6172510;28;20286;-67
2022/07/15 12:14:04;;;;;;;0.40;0.40;;;17.70;90.70;;;;;;6171879;28;20301;-67
2022/07/15 12:17:10;;;;;;;1.95;0.80;;;17.70;90.90;;;;;;6171712;29;20270;-67
2022/07/15 12:20:16;;;;;;;1.08;0.60;;;17.80;90.60;;;;;;6171639;29;20459;-67
2022/07/15 12:23:26;;;;;;;1.45;0.90;;;17.80;91.20;;;;;;6171933;28;20298;-67
2022/07/15 12:26:31;;;;;;;1.27;0.70;;;17.70;91.10;;;;;;6171384;28;20274;-66
2022/07/15 12:29:38;;;;;;;2.30;0.65;;;17.80;90.80;;;;;;6171919;28;20270;-66
2022/07/15 12:33:17;;;;;;;0.80;0.80;;;17.70;90.30;;;;;;6171493;28;20581;-67
2022/07/15 12:36:26;;;;;;;0.60;0.60;;;17.70;91.50;;;;;;6171310;28;20561;-66
2022/07/15 12:39:32;;;;;;;2.97;2.03;;;17.80;91.00;;;;;;6171415;29;20275;-66
2022/07/15 12:42:42;;;;;;;1.38;0.90;;;17.70;90.20;;;;;;6171164;28;20465;-66
2022/07/15 12:45:49;;;;;;;0.60;0.60;;;18.00;91.10;;;;;;6171621;28;20570;-68
2022/07/15 12:48:54;;;;;;;3.20;0.70;;;18.20;90.80;;;;;;6171705;29;20278;-67
2022/07/15 12:51:59;;;;;;;2.25;0.80;;;17.70;89.30;;;;;;6171644;29;20279;-67
2022/07/15 12:55:19;;;;;;;1.67;0.75;;;17.40;90.00;;;;;;6171505;29;20274;-67
2022/07/15 12:58:27;;;;;;;1.75;0.77;;;17.70;92.20;;;;;;6171487;28;20280;-67
2022/07/15 13:01:32;;;;;;;4.65;0.70;;;17.60;90.90;;;;;;6171281;29;20289;-67
2022/07/15 13:04:37;;;;;;;0.80;0.70;;;17.80;90.80;;;;;;6171357;28;20262;-67
2022/07/15 13:07:43;;;;;;;0.60;0.60;;;18.00;90.60;;;;;;6171312;28;20462;-67
2022/07/15 13:10:52;;;;;;;1.85;0.60;;;18.00;89.30;;;;;;6171194;28;20273;-67
2022/07/15 13:13:57;;;;;;;0.63;0.63;;;18.20;89.30;;;;;;6182400;28;20309;-67
2022/07/15 13:17:02;;;;;;;0.60;0.60;;;18.30;87.00;;;;;;6194864;28;20274;-68
2022/07/15 13:20:09;;;;;;;1.17;1.17;;;18.30;86.20;;;;;;6191882;28;20277;-68
2022/07/15 13:23:17;;;;;;;0.63;0.63;;;18.30;84.30;;;;;;6191271;28;20297;-68
2022/07/15 13:26:23;;;;;;;0.75;0.50;;;18.20;83.60;;;;;;6190892;28;20577;-67
2022/07/15 13:29:29;;;;;;;2.20;0.63;;;18.40;83.90;;;;;;6190926;28;20479;-67
2022/07/15 13:32:34;;;;;;;0.68;0.68;;;18.50;84.50;;;;;;6191147;28;20281;-67
2022/07/15 13:35:39;;;;;;;0.85;0.50;;;18.60;84.20;;;;;;6190782;28;20462;-68
2022/07/15 13:38:44;;;;;;;1.27;1.10;;;18.50;83.50;;;;;;6191051;28;20435;-67
2022/07/15 13:41:51;;;;;;;2.40;0.63;;;18.30;83.90;;;;;;6191101;28;20294;-67
2022/07/15 13:44:57;;;;;;;0.50;0.50;;;19.30;81.50;;;;;;6190908;28;20279;-68
2022/07/15 13:48:02;;;;;;;0.50;0.50;;;19.40;79.00;;;;;;6190148;28;20460;-68
2022/07/15 13:51:26;;;;;;;1.88;0.50;;;20.00;79.20;;;;;;6190559;28;20277;-68
2022/07/15 13:54:31;;;;;;;2.33;0.60;;;19.70;80.00;;;;;;6190267;28;20422;-68
2022/07/15 13:57:38;;;;;;;0.68;0.68;;;19.40;81.90;;;;;;6190216;28;20536;-67
2022/07/15 14:00:44;;;;;;;0.77;0.57;;;19.30;82.80;;;;;;6190046;28;20274;-68
2022/07/15 14:03:49;;;;;;;0.50;0.50;;;19.20;83.00;;;;;;6190336;28;20293;-68
2022/07/15 14:06:55;;;;;;;1.95;1.67;;;19.00;83.60;;;;;;6142667;29;20279;-67
2022/07/15 14:10:00;;;;;;;2.45;1.77;;;18.90;84.60;;;;;;6142721;29;20277;-67
2022/07/15 14:13:07;;;;;;;1.20;1.20;;;18.50;81.10;;;;;;6142322;29;20298;-67
2022/07/15 14:16:12;;;;;;;3.70;1.00;;;18.30;83.10;;;;;;6142364;29;20276;-67
2022/07/15 14:19:17;;;;;;;0.75;0.75;;;18.40;83.20;;;;;;6142641;29;20275;-67
2022/07/15 14:22:25;;;;;;;1.00;0.63;;;18.10;82.90;;;;;;6142207;29;20299;-68
2022/07/15 14:25:31;;;;;;;4.43;0.88;;;17.80;84.00;;;;;;6141784;29;20460;-67
2022/07/15 14:28:38;;;;;;;0.40;0.40;;;18.00;83.60;;;;;;6142026;29;20463;-67
2022/07/15 14:31:43;;;;;;;2.20;0.60;;;18.10;83.00;;;;;;6141561;29;20278;-68
2022/07/15 14:34:49;;;;;;;0.50;0.50;;;18.40;81.50;;;;;;6142368;29;20274;-68
2022/07/15 14:37:54;;;;;;;0.50;0.50;;;18.50;80.50;;;;;;6141676;29;20275;-68
2022/07/15 14:40:59;;;;;;;1.55;0.77;;;18.30;80.80;;;;;;6141923;29;20271;-67
2022/07/15 14:44:07;;;;;;;1.65;0.50;;;18.10;80.80;;;;;;6141657;29;20297;-67
2022/07/15 14:47:12;;;;;;;0.60;0.60;;;18.20;81.60;;;;;;6141559;29;20464;-67
2022/07/15 14:50:18;;;;;;;4.00;0.93;;;18.70;80.40;;;;;;6141577;29;20279;-67
2022/07/15 14:53:27;;;;;;;1.33;0.50;;;18.70;79.50;;;;;;6141325;29;20279;-66
2022/07/15 14:56:32;;;;;;;2.30;0.40;;;18.60;79.80;;;;;;6141590;29;20279;-68
2022/07/15 14:59:39;;;;;;;1.98;0.55;;;18.60;82.00;;;;;;6141136;29;20275;-67
2022/07/15 15:02:44;;;;;;;0.50;0.50;;;18.40;82.10;;;;;;6141061;29;20280;-67
2022/07/15 15:05:50;;;;;;;0.60;0.60;;;18.30;84.50;;;;;;6157350;29;20445;-67
2022/07/15 15:08:55;;;;;;;2.25;0.50;;;18.10;83.00;;;;;;6164830;29;20274;-68
2022/07/15 15:12:00;;;;;;;0.60;0.60;;;18.00;84.70;;;;;;6165117;28;20274;-68
2022/07/15 15:15:14;;;;;;;1.88;1.80;;;18.00;86.00;;;;;;6186488;28;20306;-67
2022/07/15 15:18:19;;;;;;;1.23;0.70;;;17.90;85.50;;;;;;6188822;28;20269;-68
2022/07/15 15:21:25;;;;;;;3.60;1.77;;;17.90;86.30;;;;;;6188725;28;20293;-67
2022/07/15 15:24:31;;;;;;;1.27;0.68;;;17.80;82.90;;;;;;6188655;28;20293;-67
2022/07/15 15:27:38;;;;;;;0.68;0.68;;;17.70;82.00;;;;;;6188148;28;20275;-68
2022/07/15 15:30:45;;;;;;;0.60;0.60;;;17.80;85.20;;;;;;6188348;28;20568;-67
2022/07/15 15:33:50;;;;;;;0.70;0.70;;;18.10;85.90;;;;;;6188650;28;20282;-68
2022/07/15 15:36:55;;;;;;;0.75;0.75;;;18.10;86.30;;;;;;6188524;28;20282;-67
2022/07/15 15:40:01;;;;;;;0.85;0.60;;;18.20;86.20;;;;;;6188200;28;20269;-67
2022/07/15 15:43:06;;;;;;;2.55;0.55;;;18.20;86.90;;;;;;6187423;28;20277;-68
2022/07/15 15:46:13;;;;;;;0.60;0.60;;;18.20;86.60;;;;;;6188110;28;20309;-68
2022/07/15 15:49:18;;;;;;;0.60;0.60;;;18.00;83.80;;;;;;6188420;28;20425;-67
2022/07/15 15:52:24;;;;;;;0.60;0.60;;;17.70;83.70;;;;;;6187755;28;20490;-67
2022/07/15 15:55:29;;;;;;;0.80;0.80;;;17.40;82.70;;;;;;6187866;28;20278;-67
2022/07/15 15:58:34;;;;;;;1.60;1.60;;;17.40;83.40;;;;;;6187653;28;20278;-66
2022/07/15 16:01:41;;;;;;;0.65;0.65;;;17.50;84.20;;;;;;6187935;28;20273;-67
2022/07/15 16:04:46;;;;;;;1.88;1.67;;;17.70;84.40;;;;;;6179967;28;20290;-67
2022/07/15 16:08:13;;;;;;;0.90;0.90;;;17.70;83.30;;;;;;6164042;28;20581;-66
2022/07/15 16:11:18;;;;;;;0.80;0.80;;;17.70;84.00;;;;;;6164515;28;20270;-66
2022/07/15 16:14:24;;;;;;;0.63;0.60;;;17.70;83.70;;;;;;6164496;28;20330;-67
2022/07/15 16:17:30;;;;;;;1.65;0.60;;;17.70;84.90;;;;;;6163999;29;20274;-67
2022/07/15 16:20:35;;;;;;;0.70;0.70;;;17.80;88.20;;;;;;6163495;29;20271;-66
2022/07/15 16:23:40;;;;;;;1.45;0.50;;;17.90;87.70;;;;;;6163684;28;20346;-66